sensor_id;sensor_type;location;lat;lon;timestamp;P1;durP1;ratioP1;P2;durP2;ratioP2
67558;SDS011;54388;53.536;49.300;2023-05-29T00:00:06;3.53;;;2.22;;
67558;SDS011;54388;53.536;49.300;2023-05-29T00:02:40;3.75;;;2.40;;
67558;SDS011;54388;53.536;49.300;2023-05-29T00:05:10;9.00;;;3.30;;
67558;SDS011;54388;53.536;49.300;2023-05-29T00:07:42;3.30;;;2.50;;
67558;SDS011;54388;53.536;49.300;2023-05-29T00:10:15;3.30;;;2.38;;
67558;SDS011;54388;53.536;49.300;2023-05-29T00:12:47;4.55;;;2.50;;
67558;SDS011;54388;53.536;49.300;2023-05-29T00:15:21;3.78;;;2.15;;
67558;SDS011;54388;53.536;49.300;2023-05-29T00:17:54;6.10;;;2.58;;
67558;SDS011;54388;53.536;49.300;2023-05-29T00:20:24;4.05;;;2.35;;
67558;SDS011;54388;53.536;49.300;2023-05-29T00:22:55;5.30;;;2.53;;
67558;SDS011;54388;53.536;49.300;2023-05-29T00:25:27;3.70;;;2.53;;
67558;SDS011;54388;53.536;49.300;2023-05-29T00:27:56;3.65;;;2.40;;
67558;SDS011;54388;53.536;49.300;2023-05-29T00:30:25;4.45;;;2.63;;
67558;SDS011;54388;53.536;49.300;2023-05-29T00:32:57;2.90;;;2.42;;
67558;SDS011;54388;53.536;49.300;2023-05-29T00:35:28;4.00;;;2.50;;
67558;SDS011;54388;53.536;49.300;2023-05-29T00:37:55;3.13;;;2.45;;
67558;SDS011;54388;53.536;49.300;2023-05-29T00:40:26;4.45;;;2.90;;
67558;SDS011;54388;53.536;49.300;2023-05-29T00:42:55;3.85;;;2.90;;
67558;SDS011;54388;53.536;49.300;2023-05-29T00:45:21;4.13;;;3.00;;
67558;SDS011;54388;53.536;49.300;2023-05-29T00:47:55;4.63;;;2.90;;
67558;SDS011;54388;53.536;49.300;2023-05-29T00:50:24;3.50;;;2.53;;
67558;SDS011;54388;53.536;49.300;2023-05-29T00:52:54;4.90;;;2.80;;
67558;SDS011;54388;53.536;49.300;2023-05-29T00:55:25;7.07;;;2.85;;
67558;SDS011;54388;53.536;49.300;2023-05-29T00:57:55;4.38;;;2.60;;
67558;SDS011;54388;53.536;49.300;2023-05-29T01:00:28;5.00;;;2.80;;
67558;SDS011;54388;53.536;49.300;2023-05-29T01:02:59;4.57;;;2.80;;
67558;SDS011;54388;53.536;49.300;2023-05-29T01:05:34;7.10;;;2.97;;
67558;SDS011;54388;53.536;49.300;2023-05-29T01:08:07;6.07;;;2.80;;
67558;SDS011;54388;53.536;49.300;2023-05-29T01:10:36;4.05;;;2.72;;
67558;SDS011;54388;53.536;49.300;2023-05-29T01:15:45;4.80;;;3.17;;
67558;SDS011;54388;53.536;49.300;2023-05-29T01:21:10;4.35;;;2.80;;
67558;SDS011;54388;53.536;49.300;2023-05-29T01:23:56;5.50;;;3.05;;
67558;SDS011;54388;53.536;49.300;2023-05-29T01:27:08;3.10;;;2.25;;
67558;SDS011;54388;53.536;49.300;2023-05-29T01:29:43;4.88;;;3.20;;
67558;SDS011;54388;53.536;49.300;2023-05-29T01:32:21;4.00;;;2.90;;
67558;SDS011;54388;53.536;49.300;2023-05-29T01:34:51;4.75;;;2.75;;
67558;SDS011;54388;53.536;49.300;2023-05-29T01:37:23;4.95;;;3.20;;
67558;SDS011;54388;53.536;49.300;2023-05-29T01:39:55;6.00;;;3.10;;
67558;SDS011;54388;53.536;49.300;2023-05-29T01:42:25;5.57;;;3.53;;
67558;SDS011;54388;53.536;49.300;2023-05-29T01:44:55;4.80;;;3.45;;
67558;SDS011;54388;53.536;49.300;2023-05-29T01:47:26;4.65;;;3.03;;
67558;SDS011;54388;53.536;49.300;2023-05-29T01:49:58;7.10;;;3.15;;
67558;SDS011;54388;53.536;49.300;2023-05-29T01:52:31;8.65;;;3.30;;
67558;SDS011;54388;53.536;49.300;2023-05-29T01:55:03;5.07;;;2.95;;
67558;SDS011;54388;53.536;49.300;2023-05-29T01:57:36;5.45;;;3.35;;
67558;SDS011;54388;53.536;49.300;2023-05-29T02:00:08;7.60;;;3.90;;
67558;SDS011;54388;53.536;49.300;2023-05-29T02:02:43;8.55;;;3.97;;
67558;SDS011;54388;53.536;49.300;2023-05-29T02:05:12;6.35;;;3.67;;
67558;SDS011;54388;53.536;49.300;2023-05-29T02:07:45;5.35;;;3.60;;
67558;SDS011;54388;53.536;49.300;2023-05-29T02:10:17;5.40;;;3.38;;
67558;SDS011;54388;53.536;49.300;2023-05-29T02:12:49;6.95;;;3.65;;
67558;SDS011;54388;53.536;49.300;2023-05-29T02:15:20;5.05;;;3.17;;
67558;SDS011;54388;53.536;49.300;2023-05-29T02:17:52;7.10;;;3.80;;
67558;SDS011;54388;53.536;49.300;2023-05-29T02:20:29;9.68;;;3.63;;
67558;SDS011;54388;53.536;49.300;2023-05-29T02:23:00;5.68;;;3.72;;
67558;SDS011;54388;53.536;49.300;2023-05-29T02:25:30;6.15;;;3.88;;
67558;SDS011;54388;53.536;49.300;2023-05-29T02:28:02;7.72;;;4.70;;
67558;SDS011;54388;53.536;49.300;2023-05-29T02:30:29;8.63;;;4.22;;
67558;SDS011;54388;53.536;49.300;2023-05-29T02:32:59;5.20;;;3.53;;
67558;SDS011;54388;53.536;49.300;2023-05-29T02:35:28;10.77;;;5.75;;
67558;SDS011;54388;53.536;49.300;2023-05-29T02:37:57;6.57;;;4.20;;
67558;SDS011;54388;53.536;49.300;2023-05-29T02:40:29;9.82;;;4.43;;
67558;SDS011;54388;53.536;49.300;2023-05-29T02:43:00;6.72;;;4.30;;
67558;SDS011;54388;53.536;49.300;2023-05-29T02:45:29;8.38;;;4.50;;
67558;SDS011;54388;53.536;49.300;2023-05-29T02:47:59;9.32;;;4.65;;
67558;SDS011;54388;53.536;49.300;2023-05-29T02:50:26;8.70;;;4.85;;
67558;SDS011;54388;53.536;49.300;2023-05-29T02:52:58;8.23;;;4.90;;
67558;SDS011;54388;53.536;49.300;2023-05-29T02:55:27;9.40;;;4.35;;
67558;SDS011;54388;53.536;49.300;2023-05-29T02:58:01;7.18;;;4.70;;
67558;SDS011;54388;53.536;49.300;2023-05-29T03:00:35;7.30;;;4.47;;
67558;SDS011;54388;53.536;49.300;2023-05-29T03:03:07;8.43;;;4.50;;
67558;SDS011;54388;53.536;49.300;2023-05-29T03:05:39;7.38;;;4.90;;
67558;SDS011;54388;53.536;49.300;2023-05-29T03:08:08;7.47;;;4.88;;
67558;SDS011;54388;53.536;49.300;2023-05-29T03:10:39;7.45;;;6.40;;
67558;SDS011;54388;53.536;49.300;2023-05-29T03:13:09;7.97;;;5.07;;
67558;SDS011;54388;53.536;49.300;2023-05-29T03:15:39;7.25;;;4.80;;
67558;SDS011;54388;53.536;49.300;2023-05-29T03:18:08;10.30;;;4.82;;
67558;SDS011;54388;53.536;49.300;2023-05-29T03:20:35;9.27;;;4.35;;
67558;SDS011;54388;53.536;49.300;2023-05-29T03:23:07;12.82;;;6.10;;
67558;SDS011;54388;53.536;49.300;2023-05-29T03:25:36;8.45;;;6.22;;
67558;SDS011;54388;53.536;49.300;2023-05-29T03:28:06;10.00;;;4.65;;
67558;SDS011;54388;53.536;49.300;2023-05-29T03:30:36;8.60;;;6.15;;
67558;SDS011;54388;53.536;49.300;2023-05-29T03:33:05;11.32;;;6.65;;
67558;SDS011;54388;53.536;49.300;2023-05-29T03:35:39;7.57;;;5.60;;
67558;SDS011;54388;53.536;49.300;2023-05-29T03:38:13;7.40;;;5.60;;
67558;SDS011;54388;53.536;49.300;2023-05-29T03:40:40;8.45;;;5.60;;
67558;SDS011;54388;53.536;49.300;2023-05-29T03:43:07;8.88;;;5.82;;
67558;SDS011;54388;53.536;49.300;2023-05-29T03:45:36;10.30;;;6.00;;
67558;SDS011;54388;53.536;49.300;2023-05-29T03:48:03;7.07;;;5.32;;
67558;SDS011;54388;53.536;49.300;2023-05-29T03:50:32;7.22;;;5.30;;
67558;SDS011;54388;53.536;49.300;2023-05-29T03:52:59;6.43;;;5.30;;
67558;SDS011;54388;53.536;49.300;2023-05-29T03:55:31;7.57;;;5.10;;
67558;SDS011;54388;53.536;49.300;2023-05-29T03:58:00;7.63;;;5.75;;
67558;SDS011;54388;53.536;49.300;2023-05-29T04:00:29;9.48;;;5.28;;
67558;SDS011;54388;53.536;49.300;2023-05-29T04:03:01;8.10;;;4.72;;
67558;SDS011;54388;53.536;49.300;2023-05-29T04:05:30;7.25;;;4.57;;
67558;SDS011;54388;53.536;49.300;2023-05-29T04:07:59;5.65;;;4.70;;
67558;SDS011;54388;53.536;49.300;2023-05-29T04:10:32;5.75;;;4.65;;
67558;SDS011;54388;53.536;49.300;2023-05-29T04:13:00;6.70;;;4.47;;
67558;SDS011;54388;53.536;49.300;2023-05-29T04:15:27;7.72;;;4.72;;
67558;SDS011;54388;53.536;49.300;2023-05-29T04:17:56;8.85;;;4.80;;
67558;SDS011;54388;53.536;49.300;2023-05-29T04:20:23;8.05;;;4.68;;
67558;SDS011;54388;53.536;49.300;2023-05-29T04:22:52;9.43;;;5.00;;
67558;SDS011;54388;53.536;49.300;2023-05-29T04:25:19;6.75;;;4.30;;
67558;SDS011;54388;53.536;49.300;2023-05-29T04:27:49;6.10;;;4.45;;
67558;SDS011;54388;53.536;49.300;2023-05-29T04:30:18;8.10;;;4.95;;
67558;SDS011;54388;53.536;49.300;2023-05-29T04:32:45;8.20;;;4.88;;
67558;SDS011;54388;53.536;49.300;2023-05-29T04:35:15;8.77;;;4.72;;
67558;SDS011;54388;53.536;49.300;2023-05-29T04:37:42;16.67;;;5.65;;
67558;SDS011;54388;53.536;49.300;2023-05-29T04:40:10;9.85;;;5.05;;
67558;SDS011;54388;53.536;49.300;2023-05-29T04:42:37;9.73;;;5.32;;
67558;SDS011;54388;53.536;49.300;2023-05-29T04:45:07;7.45;;;5.05;;
67558;SDS011;54388;53.536;49.300;2023-05-29T04:47:37;7.32;;;4.68;;
67558;SDS011;54388;53.536;49.300;2023-05-29T04:50:12;9.20;;;4.93;;
67558;SDS011;54388;53.536;49.300;2023-05-29T04:52:40;5.93;;;4.88;;
67558;SDS011;54388;53.536;49.300;2023-05-29T04:55:08;9.90;;;5.20;;
67558;SDS011;54388;53.536;49.300;2023-05-29T04:57:36;6.97;;;4.60;;
67558;SDS011;54388;53.536;49.300;2023-05-29T05:00:06;9.43;;;5.10;;
67558;SDS011;54388;53.536;49.300;2023-05-29T05:02:34;6.03;;;4.72;;
67558;SDS011;54388;53.536;49.300;2023-05-29T05:05:04;7.90;;;4.53;;
67558;SDS011;54388;53.536;49.300;2023-05-29T05:07:31;5.97;;;4.68;;
67558;SDS011;54388;53.536;49.300;2023-05-29T05:10:01;4.13;;;3.72;;
67558;SDS011;54388;53.536;49.300;2023-05-29T05:12:29;8.88;;;5.72;;
67558;SDS011;54388;53.536;49.300;2023-05-29T05:14:58;7.10;;;4.40;;
67558;SDS011;54388;53.536;49.300;2023-05-29T05:17:29;5.68;;;3.72;;
67558;SDS011;54388;53.536;49.300;2023-05-29T05:19:56;4.80;;;3.50;;
67558;SDS011;54388;53.536;49.300;2023-05-29T05:22:25;5.53;;;3.88;;
67558;SDS011;54388;53.536;49.300;2023-05-29T05:24:52;6.10;;;4.40;;
67558;SDS011;54388;53.536;49.300;2023-05-29T05:27:22;6.63;;;4.03;;
67558;SDS011;54388;53.536;49.300;2023-05-29T05:29:50;7.78;;;3.78;;
67558;SDS011;54388;53.536;49.300;2023-05-29T05:32:17;4.70;;;3.65;;
67558;SDS011;54388;53.536;49.300;2023-05-29T05:34:43;4.68;;;4.20;;
67558;SDS011;54388;53.536;49.300;2023-05-29T05:37:13;5.88;;;4.20;;
67558;SDS011;54388;53.536;49.300;2023-05-29T05:39:40;5.40;;;4.03;;
67558;SDS011;54388;53.536;49.300;2023-05-29T05:42:10;8.20;;;3.67;;
67558;SDS011;54388;53.536;49.300;2023-05-29T05:44:37;7.85;;;4.18;;
67558;SDS011;54388;53.536;49.300;2023-05-29T05:47:06;6.82;;;4.07;;
67558;SDS011;54388;53.536;49.300;2023-05-29T05:49:35;5.57;;;3.85;;
67558;SDS011;54388;53.536;49.300;2023-05-29T05:52:02;6.78;;;3.95;;
67558;SDS011;54388;53.536;49.300;2023-05-29T05:54:32;6.70;;;4.10;;
67558;SDS011;54388;53.536;49.300;2023-05-29T05:56:58;6.53;;;4.07;;
67558;SDS011;54388;53.536;49.300;2023-05-29T05:59:26;7.07;;;3.92;;
67558;SDS011;54388;53.536;49.300;2023-05-29T06:01:53;6.03;;;4.28;;
67558;SDS011;54388;53.536;49.300;2023-05-29T06:04:20;6.07;;;3.40;;
67558;SDS011;54388;53.536;49.300;2023-05-29T06:06:49;4.53;;;3.63;;
67558;SDS011;54388;53.536;49.300;2023-05-29T06:09:16;6.68;;;3.13;;
67558;SDS011;54388;53.536;49.300;2023-05-29T06:11:42;5.88;;;3.20;;
67558;SDS011;54388;53.536;49.300;2023-05-29T06:14:09;5.30;;;2.92;;
67558;SDS011;54388;53.536;49.300;2023-05-29T06:16:36;5.97;;;3.20;;
67558;SDS011;54388;53.536;49.300;2023-05-29T06:19:03;7.43;;;2.70;;
67558;SDS011;54388;53.536;49.300;2023-05-29T06:21:31;5.57;;;2.63;;
67558;SDS011;54388;53.536;49.300;2023-05-29T06:24:00;6.20;;;2.60;;
67558;SDS011;54388;53.536;49.300;2023-05-29T06:26:27;3.25;;;2.50;;
67558;SDS011;54388;53.536;49.300;2023-05-29T06:28:54;6.65;;;2.38;;
67558;SDS011;54388;53.536;49.300;2023-05-29T06:31:23;5.38;;;2.10;;
67558;SDS011;54388;53.536;49.300;2023-05-29T06:33:54;2.35;;;1.83;;
67558;SDS011;54388;53.536;49.300;2023-05-29T06:36:22;5.70;;;1.95;;
67558;SDS011;54388;53.536;49.300;2023-05-29T06:38:50;4.10;;;2.40;;
67558;SDS011;54388;53.536;49.300;2023-05-29T06:41:17;5.47;;;2.50;;
67558;SDS011;54388;53.536;49.300;2023-05-29T06:43:44;2.80;;;1.92;;
67558;SDS011;54388;53.536;49.300;2023-05-29T06:46:13;6.80;;;2.05;;
67558;SDS011;54388;53.536;49.300;2023-05-29T06:48:40;2.15;;;1.88;;
67558;SDS011;54388;53.536;49.300;2023-05-29T06:51:07;2.25;;;1.65;;
67558;SDS011;54388;53.536;49.300;2023-05-29T06:53:35;4.10;;;1.60;;
67558;SDS011;54388;53.536;49.300;2023-05-29T06:56:02;4.72;;;1.95;;
67558;SDS011;54388;53.536;49.300;2023-05-29T06:58:32;4.35;;;2.05;;
67558;SDS011;54388;53.536;49.300;2023-05-29T07:00:59;2.72;;;1.92;;
67558;SDS011;54388;53.536;49.300;2023-05-29T07:03:29;3.47;;;2.10;;
67558;SDS011;54388;53.536;49.300;2023-05-29T07:05:56;3.03;;;1.80;;
67558;SDS011;54388;53.536;49.300;2023-05-29T07:08:27;4.90;;;2.03;;
67558;SDS011;54388;53.536;49.300;2023-05-29T07:10:54;3.63;;;1.73;;
67558;SDS011;54388;53.536;49.300;2023-05-29T07:13:21;3.85;;;2.00;;
67558;SDS011;54388;53.536;49.300;2023-05-29T07:15:50;3.85;;;2.10;;
67558;SDS011;54388;53.536;49.300;2023-05-29T07:18:17;4.90;;;2.10;;
67558;SDS011;54388;53.536;49.300;2023-05-29T07:20:46;3.97;;;2.22;;
67558;SDS011;54388;53.536;49.300;2023-05-29T07:23:15;2.67;;;2.17;;
67558;SDS011;54388;53.536;49.300;2023-05-29T07:25:42;3.42;;;2.40;;
67558;SDS011;54388;53.536;49.300;2023-05-29T07:28:09;6.00;;;2.50;;
67558;SDS011;54388;53.536;49.300;2023-05-29T07:30:39;4.45;;;2.13;;
67558;SDS011;54388;53.536;49.300;2023-05-29T07:33:05;5.78;;;2.58;;
67558;SDS011;54388;53.536;49.300;2023-05-29T07:35:32;3.03;;;2.35;;
67558;SDS011;54388;53.536;49.300;2023-05-29T07:37:59;3.78;;;2.70;;
67558;SDS011;54388;53.536;49.300;2023-05-29T07:40:26;5.97;;;2.70;;
67558;SDS011;54388;53.536;49.300;2023-05-29T07:42:55;5.47;;;2.53;;
67558;SDS011;54388;53.536;49.300;2023-05-29T07:45:22;5.60;;;2.15;;
67558;SDS011;54388;53.536;49.300;2023-05-29T07:47:49;4.28;;;2.58;;
67558;SDS011;54388;53.536;49.300;2023-05-29T07:50:19;8.55;;;2.42;;
67558;SDS011;54388;53.536;49.300;2023-05-29T07:52:50;6.57;;;2.50;;
67558;SDS011;54388;53.536;49.300;2023-05-29T07:55:17;5.38;;;2.47;;
67558;SDS011;54388;53.536;49.300;2023-05-29T07:57:44;5.68;;;2.78;;
67558;SDS011;54388;53.536;49.300;2023-05-29T08:00:15;4.78;;;2.65;;
67558;SDS011;54388;53.536;49.300;2023-05-29T08:02:42;5.05;;;2.45;;
67558;SDS011;54388;53.536;49.300;2023-05-29T08:05:11;4.68;;;2.10;;
67558;SDS011;54388;53.536;49.300;2023-05-29T08:07:41;3.83;;;2.38;;
67558;SDS011;54388;53.536;49.300;2023-05-29T08:10:10;3.22;;;2.17;;
67558;SDS011;54388;53.536;49.300;2023-05-29T08:12:37;9.52;;;2.50;;
67558;SDS011;54388;53.536;49.300;2023-05-29T08:15:07;5.85;;;2.30;;
67558;SDS011;54388;53.536;49.300;2023-05-29T08:17:38;2.80;;;2.30;;
67558;SDS011;54388;53.536;49.300;2023-05-29T08:20:05;5.65;;;2.38;;
67558;SDS011;54388;53.536;49.300;2023-05-29T08:22:36;5.65;;;2.15;;
67558;SDS011;54388;53.536;49.300;2023-05-29T08:25:07;4.72;;;2.10;;
67558;SDS011;54388;53.536;49.300;2023-05-29T08:27:37;4.05;;;1.67;;
67558;SDS011;54388;53.536;49.300;2023-05-29T08:30:04;3.90;;;2.00;;
67558;SDS011;54388;53.536;49.300;2023-05-29T08:32:34;4.72;;;2.03;;
67558;SDS011;54388;53.536;49.300;2023-05-29T08:35:01;4.18;;;2.30;;
67558;SDS011;54388;53.536;49.300;2023-05-29T08:37:32;4.05;;;2.40;;
67558;SDS011;54388;53.536;49.300;2023-05-29T08:40:04;4.13;;;2.13;;
67558;SDS011;54388;53.536;49.300;2023-05-29T08:42:39;3.88;;;2.85;;
67558;SDS011;54388;53.536;49.300;2023-05-29T08:45:15;4.75;;;2.30;;
67558;SDS011;54388;53.536;49.300;2023-05-29T08:47:44;4.22;;;2.35;;
67558;SDS011;54388;53.536;49.300;2023-05-29T08:50:15;5.00;;;2.30;;
67558;SDS011;54388;53.536;49.300;2023-05-29T08:52:43;2.95;;;2.22;;
67558;SDS011;54388;53.536;49.300;2023-05-29T08:55:13;3.88;;;2.20;;
67558;SDS011;54388;53.536;49.300;2023-05-29T08:57:42;5.82;;;2.13;;
67558;SDS011;54388;53.536;49.300;2023-05-29T09:00:12;5.50;;;2.20;;
67558;SDS011;54388;53.536;49.300;2023-05-29T09:02:42;3.78;;;2.63;;
67558;SDS011;54388;53.536;49.300;2023-05-29T09:05:12;5.43;;;2.22;;
67558;SDS011;54388;53.536;49.300;2023-05-29T09:07:43;5.63;;;2.53;;
67558;SDS011;54388;53.536;49.300;2023-05-29T09:10:13;4.57;;;2.38;;
67558;SDS011;54388;53.536;49.300;2023-05-29T09:12:41;4.32;;;2.22;;
67558;SDS011;54388;53.536;49.300;2023-05-29T09:15:16;4.13;;;2.15;;
67558;SDS011;54388;53.536;49.300;2023-05-29T09:17:55;4.65;;;2.33;;
67558;SDS011;54388;53.536;49.300;2023-05-29T09:20:27;2.83;;;2.40;;
67558;SDS011;54388;53.536;49.300;2023-05-29T09:23:01;5.68;;;3.10;;
67558;SDS011;54388;53.536;49.300;2023-05-29T09:25:33;8.90;;;2.70;;
67558;SDS011;54388;53.536;49.300;2023-05-29T09:28:05;3.72;;;2.60;;
67558;SDS011;54388;53.536;49.300;2023-05-29T09:33:05;4.20;;;2.40;;
67558;SDS011;54388;53.536;49.300;2023-05-29T09:35:42;3.15;;;2.25;;
67558;SDS011;54388;53.536;49.300;2023-05-29T09:38:14;3.60;;;2.53;;
67558;SDS011;54388;53.536;49.300;2023-05-29T09:40:45;4.32;;;2.65;;
67558;SDS011;54388;53.536;49.300;2023-05-29T09:43:15;7.57;;;2.58;;
67558;SDS011;54388;53.536;49.300;2023-05-29T09:45:46;5.32;;;2.17;;
67558;SDS011;54388;53.536;49.300;2023-05-29T09:48:21;7.15;;;3.00;;
67558;SDS011;54388;53.536;49.300;2023-05-29T09:50:49;6.75;;;2.70;;
67558;SDS011;54388;53.536;49.300;2023-05-29T09:53:20;8.50;;;2.50;;
67558;SDS011;54388;53.536;49.300;2023-05-29T09:58:19;7.47;;;2.90;;
67558;SDS011;54388;53.536;49.300;2023-05-29T10:00:46;7.15;;;2.70;;
67558;SDS011;54388;53.536;49.300;2023-05-29T10:03:17;4.15;;;2.50;;
67558;SDS011;54388;53.536;49.300;2023-05-29T10:05:47;14.90;;;3.03;;
67558;SDS011;54388;53.536;49.300;2023-05-29T10:08:18;4.20;;;2.65;;
67558;SDS011;54388;53.536;49.300;2023-05-29T10:11:08;3.45;;;2.35;;
67558;SDS011;54388;53.536;49.300;2023-05-29T10:13:38;9.02;;;2.70;;
67558;SDS011;54388;53.536;49.300;2023-05-29T10:16:14;7.78;;;2.88;;
67558;SDS011;54388;53.536;49.300;2023-05-29T10:18:47;6.05;;;2.70;;
67558;SDS011;54388;53.536;49.300;2023-05-29T10:21:20;5.03;;;2.70;;
67558;SDS011;54388;53.536;49.300;2023-05-29T10:23:49;7.38;;;2.67;;
67558;SDS011;54388;53.536;49.300;2023-05-29T10:26:26;5.18;;;2.60;;
67558;SDS011;54388;53.536;49.300;2023-05-29T10:29:00;13.02;;;2.97;;
67558;SDS011;54388;53.536;49.300;2023-05-29T10:32:21;11.63;;;2.97;;
67558;SDS011;54388;53.536;49.300;2023-05-29T10:37:11;4.18;;;2.72;;
67558;SDS011;54388;53.536;49.300;2023-05-29T10:39:48;6.25;;;2.50;;
67558;SDS011;54388;53.536;49.300;2023-05-29T10:48:49;10.57;;;3.20;;
67558;SDS011;54388;53.536;49.300;2023-05-29T10:50:55;5.07;;;2.72;;
67558;SDS011;54388;53.536;49.300;2023-05-29T10:53:30;6.10;;;3.00;;
67558;SDS011;54388;53.536;49.300;2023-05-29T10:56:01;7.93;;;3.22;;
67558;SDS011;54388;53.536;49.300;2023-05-29T10:58:29;3.08;;;2.38;;
67558;SDS011;54388;53.536;49.300;2023-05-29T11:00:56;8.93;;;2.75;;
67558;SDS011;54388;53.536;49.300;2023-05-29T11:03:34;4.10;;;2.88;;
67558;SDS011;54388;53.536;49.300;2023-05-29T11:08:43;4.57;;;2.88;;
67558;SDS011;54388;53.536;49.300;2023-05-29T11:11:44;8.57;;;2.60;;
67558;SDS011;54388;53.536;49.300;2023-05-29T11:14:07;6.88;;;2.65;;
67558;SDS011;54388;53.536;49.300;2023-05-29T11:19:07;5.15;;;2.80;;
67558;SDS011;54388;53.536;49.300;2023-05-29T11:21:44;12.15;;;2.80;;
67558;SDS011;54388;53.536;49.300;2023-05-29T11:24:14;4.45;;;2.72;;
67558;SDS011;54388;53.536;49.300;2023-05-29T11:26:51;6.78;;;2.80;;
67558;SDS011;54388;53.536;49.300;2023-05-29T11:29:26;5.72;;;2.50;;
67558;SDS011;54388;53.536;49.300;2023-05-29T11:31:59;4.25;;;2.55;;
67558;SDS011;54388;53.536;49.300;2023-05-29T11:34:32;11.48;;;2.72;;
67558;SDS011;54388;53.536;49.300;2023-05-29T11:37:01;6.20;;;2.72;;
67558;SDS011;54388;53.536;49.300;2023-05-29T11:39:29;5.50;;;2.60;;
67558;SDS011;54388;53.536;49.300;2023-05-29T11:41:59;8.32;;;2.90;;
67558;SDS011;54388;53.536;49.300;2023-05-29T11:44:27;5.03;;;2.92;;
67558;SDS011;54388;53.536;49.300;2023-05-29T11:47:01;6.13;;;3.00;;
67558;SDS011;54388;53.536;49.300;2023-05-29T11:49:35;4.22;;;2.28;;
67558;SDS011;54388;53.536;49.300;2023-05-29T11:54:36;3.38;;;2.45;;
67558;SDS011;54388;53.536;49.300;2023-05-29T11:57:04;7.22;;;2.35;;
67558;SDS011;54388;53.536;49.300;2023-05-29T11:59:32;7.20;;;2.40;;
67558;SDS011;54388;53.536;49.300;2023-05-29T12:02:03;2.83;;;1.92;;
67558;SDS011;54388;53.536;49.300;2023-05-29T12:04:31;4.63;;;2.13;;
67558;SDS011;54388;53.536;49.300;2023-05-29T12:06:58;5.82;;;2.15;;
67558;SDS011;54388;53.536;49.300;2023-05-29T12:09:30;5.65;;;3.00;;
67558;SDS011;54388;53.536;49.300;2023-05-29T12:12:04;4.82;;;2.67;;
67558;SDS011;54388;53.536;49.300;2023-05-29T12:14:32;5.97;;;2.40;;
67558;SDS011;54388;53.536;49.300;2023-05-29T12:17:02;4.57;;;2.22;;
67558;SDS011;54388;53.536;49.300;2023-05-29T12:19:34;8.32;;;2.47;;
67558;SDS011;54388;53.536;49.300;2023-05-29T12:22:05;4.65;;;2.40;;
67558;SDS011;54388;53.536;49.300;2023-05-29T12:24:38;8.27;;;2.33;;
67558;SDS011;54388;53.536;49.300;2023-05-29T12:27:09;7.38;;;2.13;;
67558;SDS011;54388;53.536;49.300;2023-05-29T12:29:39;3.60;;;1.88;;
67558;SDS011;54388;53.536;49.300;2023-05-29T12:32:09;7.68;;;3.13;;
67558;SDS011;54388;53.536;49.300;2023-05-29T12:34:36;4.32;;;2.08;;
67558;SDS011;54388;53.536;49.300;2023-05-29T12:37:06;5.07;;;2.28;;
67558;SDS011;54388;53.536;49.300;2023-05-29T12:39:35;6.93;;;2.10;;
67558;SDS011;54388;53.536;49.300;2023-05-29T12:42:05;3.55;;;2.10;;
67558;SDS011;54388;53.536;49.300;2023-05-29T12:44:38;3.05;;;1.77;;
67558;SDS011;54388;53.536;49.300;2023-05-29T12:47:04;7.78;;;2.13;;
67558;SDS011;54388;53.536;49.300;2023-05-29T12:49:35;6.13;;;1.90;;
67558;SDS011;54388;53.536;49.300;2023-05-29T12:52:05;4.75;;;2.15;;
67558;SDS011;54388;53.536;49.300;2023-05-29T12:54:33;2.92;;;1.92;;
67558;SDS011;54388;53.536;49.300;2023-05-29T12:57:00;5.22;;;2.17;;
67558;SDS011;54388;53.536;49.300;2023-05-29T12:59:28;4.32;;;2.00;;
67558;SDS011;54388;53.536;49.300;2023-05-29T13:01:57;7.28;;;2.25;;
67558;SDS011;54388;53.536;49.300;2023-05-29T13:04:24;4.00;;;2.20;;
67558;SDS011;54388;53.536;49.300;2023-05-29T13:06:52;6.20;;;2.17;;
67558;SDS011;54388;53.536;49.300;2023-05-29T13:09:18;7.75;;;2.45;;
67558;SDS011;54388;53.536;49.300;2023-05-29T13:11:48;3.53;;;2.20;;
67558;SDS011;54388;53.536;49.300;2023-05-29T13:14:15;5.43;;;2.30;;
67558;SDS011;54388;53.536;49.300;2023-05-29T13:16:44;6.38;;;2.22;;
67558;SDS011;54388;53.536;49.300;2023-05-29T13:19:11;4.78;;;2.20;;
67558;SDS011;54388;53.536;49.300;2023-05-29T13:21:38;5.25;;;2.20;;
67558;SDS011;54388;53.536;49.300;2023-05-29T13:24:06;5.30;;;2.33;;
67558;SDS011;54388;53.536;49.300;2023-05-29T13:26:36;7.10;;;2.38;;
67558;SDS011;54388;53.536;49.300;2023-05-29T13:29:03;4.55;;;2.15;;
67558;SDS011;54388;53.536;49.300;2023-05-29T13:31:35;5.20;;;1.90;;
67558;SDS011;54388;53.536;49.300;2023-05-29T13:34:02;4.20;;;2.20;;
67558;SDS011;54388;53.536;49.300;2023-05-29T13:36:29;5.53;;;2.40;;
67558;SDS011;54388;53.536;49.300;2023-05-29T13:38:57;2.88;;;1.77;;
67558;SDS011;54388;53.536;49.300;2023-05-29T13:41:24;7.28;;;2.35;;
67558;SDS011;54388;53.536;49.300;2023-05-29T13:43:51;4.13;;;1.80;;
67558;SDS011;54388;53.536;49.300;2023-05-29T13:46:20;5.55;;;2.15;;
67558;SDS011;54388;53.536;49.300;2023-05-29T13:48:47;7.35;;;2.10;;
67558;SDS011;54388;53.536;49.300;2023-05-29T13:51:14;6.03;;;2.20;;
67558;SDS011;54388;53.536;49.300;2023-05-29T13:53:41;4.63;;;2.05;;
67558;SDS011;54388;53.536;49.300;2023-05-29T13:56:07;4.60;;;2.20;;
67558;SDS011;54388;53.536;49.300;2023-05-29T13:58:34;5.60;;;1.80;;
67558;SDS011;54388;53.536;49.300;2023-05-29T14:01:01;2.95;;;1.95;;
67558;SDS011;54388;53.536;49.300;2023-05-29T14:03:36;4.82;;;1.60;;
67558;SDS011;54388;53.536;49.300;2023-05-29T14:06:07;3.55;;;1.90;;
67558;SDS011;54388;53.536;49.300;2023-05-29T14:08:34;6.95;;;2.13;;
67558;SDS011;54388;53.536;49.300;2023-05-29T14:11:00;3.42;;;1.60;;
67558;SDS011;54388;53.536;49.300;2023-05-29T14:13:30;5.60;;;2.42;;
67558;SDS011;54388;53.536;49.300;2023-05-29T14:15:59;6.22;;;1.98;;
67558;SDS011;54388;53.536;49.300;2023-05-29T14:18:25;7.05;;;1.77;;
67558;SDS011;54388;53.536;49.300;2023-05-29T14:20:52;4.65;;;1.80;;
67558;SDS011;54388;53.536;49.300;2023-05-29T14:23:22;5.18;;;1.88;;
67558;SDS011;54388;53.536;49.300;2023-05-29T14:25:51;3.55;;;2.22;;
67558;SDS011;54388;53.536;49.300;2023-05-29T14:28:18;5.97;;;1.73;;
67558;SDS011;54388;53.536;49.300;2023-05-29T14:30:45;5.28;;;1.77;;
67558;SDS011;54388;53.536;49.300;2023-05-29T14:33:12;3.42;;;1.63;;
67558;SDS011;54388;53.536;49.300;2023-05-29T14:35:38;3.55;;;1.85;;
67558;SDS011;54388;53.536;49.300;2023-05-29T14:38:08;4.93;;;1.90;;
67558;SDS011;54388;53.536;49.300;2023-05-29T14:40:35;4.65;;;1.88;;
67558;SDS011;54388;53.536;49.300;2023-05-29T14:43:03;2.22;;;1.50;;
67558;SDS011;54388;53.536;49.300;2023-05-29T14:45:32;5.18;;;1.90;;
67558;SDS011;54388;53.536;49.300;2023-05-29T14:47:59;6.65;;;2.38;;
67558;SDS011;54388;53.536;49.300;2023-05-29T14:50:31;6.47;;;2.22;;
67558;SDS011;54388;53.536;49.300;2023-05-29T14:53:01;8.02;;;1.80;;
67558;SDS011;54388;53.536;49.300;2023-05-29T14:55:27;8.15;;;1.70;;
67558;SDS011;54388;53.536;49.300;2023-05-29T14:57:59;5.15;;;1.92;;
67558;SDS011;54388;53.536;49.300;2023-05-29T15:00:28;6.75;;;1.80;;
67558;SDS011;54388;53.536;49.300;2023-05-29T15:02:57;13.15;;;2.20;;
67558;SDS011;54388;53.536;49.300;2023-05-29T15:05:28;6.55;;;2.00;;
67558;SDS011;54388;53.536;49.300;2023-05-29T15:07:55;7.35;;;2.15;;
67558;SDS011;54388;53.536;49.300;2023-05-29T15:10:26;7.88;;;2.20;;
67558;SDS011;54388;53.536;49.300;2023-05-29T15:12:55;7.10;;;2.90;;
67558;SDS011;54388;53.536;49.300;2023-05-29T15:15:28;6.20;;;2.63;;